Time;durP1;ratioP1;P1;durP2;ratioP2;P2;SDS_P1;SDS_P2;PMS_P1;PMS_P2;Temp;Humidity;BMP_temperature;BMP_pressure;BME280_temperature;BME280_humidity;BME280_pressure;Samples;Min_cycle;Max_cycle;Signal;HPM_P1;HPM_P2
2023/06/14 00:00:34;;;;;;;7.13;5.67;;;;;;;;;;5055680;28;20231;-62
2023/06/14 00:03:03;;;;;;;10.70;6.30;;;;;;;;;;5059975;28;20248;-66
2023/06/14 00:05:33;;;;;;;13.20;8.33;;;;;;;;;;5049330;28;20232;-63
2023/06/14 00:08:00;;;;;;;6.87;5.20;;;;;;;;;;5070314;28;20211;-65
2023/06/14 00:10:30;;;;;;;7.10;5.47;;;;;;;;;;5078720;28;20209;-65
2023/06/14 00:12:59;;;;;;;7.53;5.10;;;;;;;;;;5069838;28;20222;-64
2023/06/14 00:15:27;;;;;;;5.63;5.00;;;;;;;;;;5045420;28;20206;-64
2023/06/14 00:17:56;;;;;;;6.60;4.73;;;;;;;;;;5057540;28;20288;-64
2023/06/14 00:20:23;;;;;;;10.70;5.60;;;;;;;;;;5050030;28;20324;-64
2023/06/14 00:22:51;;;;;;;7.53;5.00;;;;;;;;;;5058263;28;20252;-64
2023/06/14 00:25:19;;;;;;;7.10;5.47;;;;;;;;;;5053587;28;20316;-64
2023/06/14 00:27:56;;;;;;;11.97;6.73;;;;;;;;;;5051720;28;20197;-64
2023/06/14 00:30:23;;;;;;;8.17;5.50;;;;;;;;;;5060348;28;20231;-62
2023/06/14 00:32:51;;;;;;;6.17;4.60;;;;;;;;;;5048200;28;20229;-64
2023/06/14 00:35:19;;;;;;;4.30;3.90;;;;;;;;;;5052582;28;20206;-62
2023/06/14 00:37:46;;;;;;;4.23;3.90;;;;;;;;;;5051643;28;20202;-62
2023/06/14 00:40:13;;;;;;;4.10;3.70;;;;;;;;;;5056951;28;20202;-63
2023/06/14 00:42:41;;;;;;;4.93;4.43;;;;;;;;;;5050040;28;20233;-64
2023/06/14 00:45:09;;;;;;;7.17;4.10;;;;;;;;;;5046623;28;20198;-63
2023/06/14 00:47:37;;;;;;;4.40;4.00;;;;;;;;;;5064068;28;20278;-64
2023/06/14 00:50:07;;;;;;;7.23;5.57;;;;;;;;;;5047094;28;20226;-63
2023/06/14 00:52:35;;;;;;;9.57;5.40;;;;;;;;;;5048317;28;20308;-63
2023/06/14 00:55:02;;;;;;;8.10;4.80;;;;;;;;;;5044489;28;20202;-65
2023/06/14 00:57:30;;;;;;;7.17;4.37;;;;;;;;;;5043997;28;20201;-67
2023/06/14 00:59:57;;;;;;;5.97;4.70;;;;;;;;;;5045636;28;20205;-67
2023/06/14 01:02:24;;;;;;;10.47;5.70;;;;;;;;;;5034366;28;20241;-63
2023/06/14 01:04:52;;;;;;;13.23;8.17;;;;;;;;;;5049954;28;20366;-61
2023/06/14 01:07:24;;;;;;;9.00;6.40;;;;;;;;;;5049609;28;20229;-61
2023/06/14 01:09:57;;;;;;;5.57;4.90;;;;;;;;;;5074304;28;20197;-64
2023/06/14 01:12:27;;;;;;;7.30;5.10;;;;;;;;;;5072512;28;20217;-62
2023/06/14 01:14:55;;;;;;;8.87;5.13;;;;;;;;;;5049615;28;20267;-64
2023/06/14 01:17:23;;;;;;;10.37;7.00;;;;;;;;;;5054345;28;20213;-63
2023/06/14 01:19:57;;;;;;;13.77;8.07;;;;;;;;;;5057519;28;20254;-64
2023/06/14 01:22:27;;;;;;;16.97;8.50;;;;;;;;;;5078574;28;20221;-63
2023/06/14 01:24:57;;;;;;;5.77;4.60;;;;;;;;;;5060053;28;20745;-62
2023/06/14 01:27:29;;;;;;;7.47;4.57;;;;;;;;;;5070060;28;20262;-62
2023/06/14 01:29:57;;;;;;;6.80;5.03;;;;;;;;;;5069731;28;20197;-64
2023/06/14 01:32:27;;;;;;;8.10;5.20;;;;;;;;;;5069689;28;20756;-63
2023/06/14 01:34:54;;;;;;;12.70;9.07;;;;;;;;;;5071373;28;20284;-63
2023/06/14 01:37:22;;;;;;;6.97;5.67;;;;;;;;;;5068135;28;20305;-63
2023/06/14 01:39:50;;;;;;;5.97;4.30;;;;;;;;;;5062862;28;20221;-63
2023/06/14 01:42:17;;;;;;;4.10;3.70;;;;;;;;;;5060975;28;20230;-62
2023/06/14 01:44:45;;;;;;;5.73;4.40;;;;;;;;;;5066254;28;20201;-63
2023/06/14 01:47:12;;;;;;;4.93;4.53;;;;;;;;;;5057364;28;20604;-61
2023/06/14 01:49:40;;;;;;;5.07;4.57;;;;;;;;;;5058918;28;20229;-61
2023/06/14 01:52:09;;;;;;;5.27;4.40;;;;;;;;;;5066667;28;20233;-61
2023/06/14 01:54:41;;;;;;;4.83;4.33;;;;;;;;;;5064327;28;20228;-63
2023/06/14 01:57:10;;;;;;;7.80;4.90;;;;;;;;;;5070401;28;20213;-62
2023/06/14 01:59:37;;;;;;;6.10;5.43;;;;;;;;;;5064761;28;20287;-61
2023/06/14 02:02:05;;;;;;;6.30;5.10;;;;;;;;;;5057979;28;20225;-63
2023/06/14 02:04:32;;;;;;;6.43;5.07;;;;;;;;;;5076322;28;20205;-63
2023/06/14 02:07:00;;;;;;;5.77;4.97;;;;;;;;;;5058594;28;20225;-63
2023/06/14 02:09:27;;;;;;;5.57;4.67;;;;;;;;;;5044344;28;20202;-63
2023/06/14 02:11:55;;;;;;;7.57;5.63;;;;;;;;;;5043785;28;20274;-63
2023/06/14 02:14:23;;;;;;;10.73;7.07;;;;;;;;;;5042868;28;20208;-63
2023/06/14 02:16:50;;;;;;;10.87;7.73;;;;;;;;;;5044079;28;20214;-63
2023/06/14 02:19:18;;;;;;;12.87;6.67;;;;;;;;;;5047774;28;20205;-63
2023/06/14 02:21:45;;;;;;;8.50;6.03;;;;;;;;;;5047799;28;20226;-63
2023/06/14 02:24:13;;;;;;;8.33;5.57;;;;;;;;;;5070028;28;20274;-63
2023/06/14 02:26:43;;;;;;;7.13;5.13;;;;;;;;;;5056610;28;20280;-63
2023/06/14 02:29:14;;;;;;;11.57;5.93;;;;;;;;;;5065878;28;20197;-63
2023/06/14 02:31:41;;;;;;;6.50;4.70;;;;;;;;;;5056938;28;20230;-63
2023/06/14 02:34:09;;;;;;;5.67;4.23;;;;;;;;;;5044599;28;20271;-63
2023/06/14 02:36:41;;;;;;;22.63;10.53;;;;;;;;;;5053786;28;20595;-63
2023/06/14 02:39:10;;;;;;;39.67;18.13;;;;;;;;;;5029192;28;20214;-63
2023/06/14 02:41:38;;;;;;;15.83;8.37;;;;;;;;;;5048366;28;20315;-63
2023/06/14 02:44:06;;;;;;;20.60;11.23;;;;;;;;;;5047149;28;20677;-63
2023/06/14 02:46:33;;;;;;;24.50;13.37;;;;;;;;;;5047418;28;20232;-62
2023/06/14 02:49:00;;;;;;;25.13;12.43;;;;;;;;;;5035240;28;20206;-63
2023/06/14 02:51:28;;;;;;;15.57;8.80;;;;;;;;;;5051616;28;20248;-62
2023/06/14 02:53:55;;;;;;;17.37;9.20;;;;;;;;;;5047559;28;20229;-64
2023/06/14 02:56:22;;;;;;;13.90;8.30;;;;;;;;;;5046174;28;20213;-62
2023/06/14 02:58:50;;;;;;;15.60;7.60;;;;;;;;;;5045431;28;20210;-64
2023/06/14 03:01:17;;;;;;;12.97;7.90;;;;;;;;;;5045250;28;20229;-62
2023/06/14 03:03:45;;;;;;;10.60;7.23;;;;;;;;;;5047284;28;20834;-61
2023/06/14 03:06:12;;;;;;;10.10;6.50;;;;;;;;;;5045224;28;20692;-63
2023/06/14 03:08:43;;;;;;;9.43;6.13;;;;;;;;;;5055483;28;20201;-62
2023/06/14 03:11:11;;;;;;;8.53;5.90;;;;;;;;;;5048353;28;20220;-63
2023/06/14 03:13:38;;;;;;;7.83;5.73;;;;;;;;;;5046272;28;20210;-62
2023/06/14 03:16:07;;;;;;;8.00;5.70;;;;;;;;;;5040794;28;20205;-62
2023/06/14 03:18:35;;;;;;;7.53;5.33;;;;;;;;;;5064253;28;20190;-61
2023/06/14 03:21:03;;;;;;;4.57;4.17;;;;;;;;;;5072359;28;20291;-62
2023/06/14 03:23:31;;;;;;;5.17;4.17;;;;;;;;;;5063928;28;20209;-61
2023/06/14 03:25:58;;;;;;;6.00;4.03;;;;;;;;;;5065022;28;20680;-61
2023/06/14 03:28:25;;;;;;;6.07;4.20;;;;;;;;;;5071952;28;20198;-62
2023/06/14 03:30:53;;;;;;;9.07;4.30;;;;;;;;;;5067183;28;20196;-63
2023/06/14 03:33:20;;;;;;;5.33;4.30;;;;;;;;;;5066553;28;20218;-63
2023/06/14 03:35:49;;;;;;;5.60;4.53;;;;;;;;;;5064776;28;20202;-63
2023/06/14 03:38:16;;;;;;;4.77;4.27;;;;;;;;;;5070838;28;20207;-62
2023/06/14 03:40:44;;;;;;;4.57;4.10;;;;;;;;;;5066745;28;20660;-63
2023/06/14 03:43:11;;;;;;;4.90;4.40;;;;;;;;;;5062155;28;20221;-63
2023/06/14 03:45:39;;;;;;;4.93;4.43;;;;;;;;;;5068917;28;20235;-63
2023/06/14 03:48:08;;;;;;;5.07;4.33;;;;;;;;;;5067646;28;20225;-63
2023/06/14 03:50:38;;;;;;;5.00;4.50;;;;;;;;;;5043240;28;20211;-63
2023/06/14 03:53:05;;;;;;;6.30;5.03;;;;;;;;;;5046842;28;20236;-63
2023/06/14 03:55:33;;;;;;;7.80;5.00;;;;;;;;;;5041115;28;21084;-62
2023/06/14 03:58:04;;;;;;;7.90;5.10;;;;;;;;;;5043317;28;20205;-63
2023/06/14 04:00:32;;;;;;;5.53;4.63;;;;;;;;;;5045727;28;21462;-63
2023/06/14 04:02:59;;;;;;;9.43;5.20;;;;;;;;;;5045928;28;20225;-64
2023/06/14 04:05:26;;;;;;;7.00;4.97;;;;;;;;;;5047173;28;20206;-63
2023/06/14 04:07:55;;;;;;;7.27;5.13;;;;;;;;;;5043154;28;20221;-63
2023/06/14 04:10:23;;;;;;;6.83;5.17;;;;;;;;;;5046906;28;20202;-64
2023/06/14 04:12:51;;;;;;;5.73;4.90;;;;;;;;;;5040677;28;20230;-63
2023/06/14 04:15:19;;;;;;;6.70;5.47;;;;;;;;;;5042993;28;20209;-64
2023/06/14 04:17:48;;;;;;;6.30;5.60;;;;;;;;;;5049779;28;20208;-63
2023/06/14 04:20:16;;;;;;;8.37;6.03;;;;;;;;;;5054215;28;20690;-64
2023/06/14 04:22:44;;;;;;;6.43;5.20;;;;;;;;;;5038028;28;20236;-63
2023/06/14 04:25:11;;;;;;;5.30;4.50;;;;;;;;;;5047851;28;20319;-63
2023/06/14 04:27:39;;;;;;;4.60;4.20;;;;;;;;;;5053258;28;20229;-63
2023/06/14 04:30:07;;;;;;;5.07;4.57;;;;;;;;;;5055111;28;20217;-63
2023/06/14 04:32:38;;;;;;;7.57;4.60;;;;;;;;;;5059666;28;20228;-63
2023/06/14 04:35:10;;;;;;;5.03;4.53;;;;;;;;;;5048779;28;20258;-63
2023/06/14 04:37:40;;;;;;;4.80;4.30;;;;;;;;;;5054226;28;20205;-63
2023/06/14 04:40:07;;;;;;;4.80;4.40;;;;;;;;;;5050907;28;20212;-63
2023/06/14 04:42:40;;;;;;;5.10;4.60;;;;;;;;;;5044668;28;20705;-64
2023/06/14 04:45:08;;;;;;;6.73;4.47;;;;;;;;;;5043055;28;20236;-63
2023/06/14 04:47:37;;;;;;;7.77;4.50;;;;;;;;;;5045022;28;20221;-63
2023/06/14 04:50:05;;;;;;;14.47;6.83;;;;;;;;;;5041247;28;20784;-63
2023/06/14 04:52:32;;;;;;;54.10;18.80;;;;;;;;;;5033115;28;20225;-63
2023/06/14 04:55:00;;;;;;;40.87;15.17;;;;;;;;;;5040938;28;20265;-63
2023/06/14 04:57:27;;;;;;;22.03;10.03;;;;;;;;;;5051557;28;20284;-63
2023/06/14 04:59:55;;;;;;;19.43;8.17;;;;;;;;;;5046213;28;20279;-66
2023/06/14 05:02:23;;;;;;;7.97;5.23;;;;;;;;;;5048274;28;20325;-63
2023/06/14 05:04:52;;;;;;;7.90;5.03;;;;;;;;;;5044126;28;20211;-61
2023/06/14 05:07:20;;;;;;;4.30;3.80;;;;;;;;;;5060708;28;20226;-61
2023/06/14 05:09:47;;;;;;;5.77;3.90;;;;;;;;;;5069146;28;20206;-61
2023/06/14 05:12:18;;;;;;;5.57;3.93;;;;;;;;;;5074406;28;20230;-62
2023/06/14 05:14:45;;;;;;;4.70;3.43;;;;;;;;;;5074153;28;20280;-62
2023/06/14 05:17:13;;;;;;;3.90;3.60;;;;;;;;;;5067715;28;20682;-62
2023/06/14 05:19:40;;;;;;;5.43;3.60;;;;;;;;;;5065323;28;20205;-64
2023/06/14 05:22:08;;;;;;;3.60;3.30;;;;;;;;;;5062890;28;20237;-62
2023/06/14 05:24:35;;;;;;;4.60;3.63;;;;;;;;;;5065545;28;20205;-62
2023/06/14 05:27:05;;;;;;;4.60;3.50;;;;;;;;;;5065648;28;20228;-63
2023/06/14 05:29:33;;;;;;;6.18;3.30;;;;;;;;;;5062410;28;20438;-61
2023/06/14 05:32:00;;;;;;;4.22;3.13;;;;;;;;;;5063799;28;20221;-62
2023/06/14 05:34:28;;;;;;;4.50;3.72;;;;;;;;;;5068157;28;20232;-62
2023/06/14 05:36:55;;;;;;;5.30;3.60;;;;;;;;;;5075109;28;20561;-63
2023/06/14 05:39:24;;;;;;;3.40;2.90;;;;;;;;;;5069878;28;20208;-63
2023/06/14 05:41:51;;;;;;;3.92;3.53;;;;;;;;;;5049100;28;20221;-63
2023/06/14 05:44:18;;;;;;;3.53;3.10;;;;;;;;;;5067703;28;20294;-63
2023/06/14 05:46:46;;;;;;;3.75;3.45;;;;;;;;;;5071651;28;20212;-62
2023/06/14 05:49:13;;;;;;;4.10;3.13;;;;;;;;;;5065785;28;20584;-62
2023/06/14 05:51:41;;;;;;;3.60;3.20;;;;;;;;;;5057011;28;20257;-63
2023/06/14 05:54:08;;;;;;;3.95;2.83;;;;;;;;;;5043148;28;20198;-62
2023/06/14 05:56:36;;;;;;;3.58;3.00;;;;;;;;;;5047752;28;20205;-63
2023/06/14 05:59:03;;;;;;;3.47;2.88;;;;;;;;;;5052669;28;20205;-62
2023/06/14 06:01:32;;;;;;;3.58;3.28;;;;;;;;;;5046605;28;20231;-62
2023/06/14 06:03:59;;;;;;;3.40;2.72;;;;;;;;;;5049039;28;20213;-63
2023/06/14 06:06:29;;;;;;;4.90;3.10;;;;;;;;;;5048668;28;20202;-63
2023/06/14 06:08:57;;;;;;;3.35;2.63;;;;;;;;;;5046819;28;20260;-63
2023/06/14 06:11:24;;;;;;;3.15;2.95;;;;;;;;;;5044233;28;20228;-62
2023/06/14 06:13:52;;;;;;;3.28;3.03;;;;;;;;;;5033606;28;20227;-62
2023/06/14 06:16:20;;;;;;;4.93;2.90;;;;;;;;;;5044224;28;20216;-63
2023/06/14 06:18:47;;;;;;;3.35;2.92;;;;;;;;;;5043574;28;20233;-63
2023/06/14 06:21:15;;;;;;;3.17;2.85;;;;;;;;;;5047042;28;20221;-63
2023/06/14 06:23:43;;;;;;;3.53;3.22;;;;;;;;;;5063914;28;20245;-63
2023/06/14 06:26:10;;;;;;;3.42;3.10;;;;;;;;;;5062834;28;20660;-63
2023/06/14 06:28:38;;;;;;;3.67;3.38;;;;;;;;;;5061497;28;20232;-62
2023/06/14 06:31:05;;;;;;;3.88;3.58;;;;;;;;;;5046329;28;20212;-64
2023/06/14 06:33:33;;;;;;;4.05;3.00;;;;;;;;;;5047854;28;20619;-63
2023/06/14 06:36:00;;;;;;;3.67;3.13;;;;;;;;;;5046408;28;20889;-63
2023/06/14 06:38:27;;;;;;;3.63;3.00;;;;;;;;;;5043695;28;20212;-63
2023/06/14 06:40:56;;;;;;;2.92;2.72;;;;;;;;;;5050780;28;20224;-63
2023/06/14 06:43:23;;;;;;;3.00;2.78;;;;;;;;;;5049814;28;20234;-63
2023/06/14 06:45:51;;;;;;;3.92;3.15;;;;;;;;;;5045367;28;20216;-63
2023/06/14 06:48:18;;;;;;;4.00;2.90;;;;;;;;;;5047154;28;20249;-63
2023/06/14 06:50:46;;;;;;;3.10;2.78;;;;;;;;;;5046026;28;20202;-63
2023/06/14 06:53:13;;;;;;;6.40;3.00;;;;;;;;;;5045761;28;20769;-62
2023/06/14 06:55:47;;;;;;;3.05;2.85;;;;;;;;;;5047402;28;20301;-65
2023/06/14 06:58:14;;;;;;;8.52;3.30;;;;;;;;;;5051379;28;20209;-65
2023/06/14 07:00:42;;;;;;;3.13;2.90;;;;;;;;;;5046583;28;20224;-62
2023/06/14 07:03:09;;;;;;;3.90;3.60;;;;;;;;;;5050759;28;20690;-64
2023/06/14 07:05:37;;;;;;;4.32;3.30;;;;;;;;;;5048261;28;21219;-65
2023/06/14 07:08:04;;;;;;;4.10;3.00;;;;;;;;;;5058864;28;20263;-63
2023/06/14 07:10:31;;;;;;;9.07;3.30;;;;;;;;;;5054405;28;20197;-63
2023/06/14 07:12:59;;;;;;;5.05;3.00;;;;;;;;;;5069376;28;20224;-63
2023/06/14 07:15:26;;;;;;;3.72;2.97;;;;;;;;;;5068075;28;20247;-62
2023/06/14 07:17:54;;;;;;;3.38;2.65;;;;;;;;;;5067577;28;20236;-62
2023/06/14 07:20:22;;;;;;;3.80;3.10;;;;;;;;;;5073616;28;20216;-64
2023/06/14 07:22:49;;;;;;;3.60;3.30;;;;;;;;;;5067620;28;20225;-64
2023/06/14 07:25:19;;;;;;;3.35;2.88;;;;;;;;;;5075195;28;20663;-64
2023/06/14 07:27:47;;;;;;;3.97;3.15;;;;;;;;;;5077327;28;20249;-64
2023/06/14 07:30:14;;;;;;;5.13;2.97;;;;;;;;;;5070015;28;20266;-64
2023/06/14 07:32:42;;;;;;;4.53;3.22;;;;;;;;;;5070602;28;20222;-63
2023/06/14 07:35:10;;;;;;;4.10;3.00;;;;;;;;;;5078003;28;20609;-63
2023/06/14 07:37:37;;;;;;;3.50;3.20;;;;;;;;;;5083162;28;20595;-62
2023/06/14 07:40:06;;;;;;;5.10;2.85;;;;;;;;;;5073149;28;20243;-62
2023/06/14 07:42:35;;;;;;;3.35;3.05;;;;;;;;;;5075393;28;20392;-63
2023/06/14 07:45:03;;;;;;;3.38;3.08;;;;;;;;;;5066724;28;20228;-61
2023/06/14 07:47:31;;;;;;;3.60;3.30;;;;;;;;;;5067283;28;20229;-63
2023/06/14 07:49:58;;;;;;;4.35;3.17;;;;;;;;;;5066196;28;20193;-62
2023/06/14 07:52:25;;;;;;;4.15;3.58;;;;;;;;;;5041074;28;20268;-62
2023/06/14 07:54:53;;;;;;;4.45;3.40;;;;;;;;;;5044423;28;20660;-63
2023/06/14 07:57:20;;;;;;;3.65;3.35;;;;;;;;;;5043966;28;20260;-62
2023/06/14 07:59:47;;;;;;;3.65;3.35;;;;;;;;;;5049853;28;20203;-61
2023/06/14 08:02:15;;;;;;;5.03;3.63;;;;;;;;;;5045251;28;20229;-66
2023/06/14 08:04:42;;;;;;;4.68;3.15;;;;;;;;;;5042780;28;20259;-66
2023/06/14 08:07:10;;;;;;;3.33;3.03;;;;;;;;;;5041477;28;20212;-62
2023/06/14 08:09:38;;;;;;;4.65;3.38;;;;;;;;;;5039935;28;20237;-63
2023/06/14 08:12:09;;;;;;;3.75;3.45;;;;;;;;;;5042206;28;20257;-67
2023/06/14 08:14:37;;;;;;;3.90;3.38;;;;;;;;;;5043720;28;20206;-65
2023/06/14 08:17:04;;;;;;;4.78;3.58;;;;;;;;;;5047562;28;20210;-64
2023/06/14 08:19:32;;;;;;;3.80;3.20;;;;;;;;;;5030382;28;20229;-68
2023/06/14 08:21:59;;;;;;;5.07;3.15;;;;;;;;;;5060105;28;20247;-63
2023/06/14 08:24:27;;;;;;;4.25;3.30;;;;;;;;;;5060967;28;20205;-62
2023/06/14 08:26:54;;;;;;;4.35;3.05;;;;;;;;;;5071945;28;20205;-64
2023/06/14 08:29:21;;;;;;;4.13;3.72;;;;;;;;;;5081459;28;20274;-64
2023/06/14 08:31:49;;;;;;;4.03;3.63;;;;;;;;;;5065224;28;20225;-64
2023/06/14 08:34:16;;;;;;;3.88;3.58;;;;;;;;;;5050076;28;20205;-64
2023/06/14 08:36:44;;;;;;;4.13;3.70;;;;;;;;;;5052427;28;20198;-64
2023/06/14 08:39:12;;;;;;;3.63;3.08;;;;;;;;;;5048840;28;20217;-65
2023/06/14 08:41:39;;;;;;;3.78;3.15;;;;;;;;;;5054090;28;20226;-63
2023/06/14 08:44:07;;;;;;;4.60;4.10;;;;;;;;;;5053320;28;21185;-65
2023/06/14 08:46:34;;;;;;;3.88;3.58;;;;;;;;;;5052007;28;20217;-62
2023/06/14 08:49:03;;;;;;;4.75;3.95;;;;;;;;;;5048492;28;20371;-68
2023/06/14 08:51:36;;;;;;;3.83;3.53;;;;;;;;;;5046940;28;20247;-62
2023/06/14 08:54:03;;;;;;;4.70;3.53;;;;;;;;;;5049738;28;20292;-67
2023/06/14 08:56:33;;;;;;;7.88;4.07;;;;;;;;;;5046451;28;20209;-61
2023/06/14 08:59:02;;;;;;;8.90;3.88;;;;;;;;;;5046950;28;20689;-63
2023/06/14 09:01:38;;;;;;;4.07;3.53;;;;;;;;;;5034460;28;20221;-64
2023/06/14 09:04:05;;;;;;;4.55;3.97;;;;;;;;;;5051620;28;20291;-63
2023/06/14 09:06:33;;;;;;;4.88;4.38;;;;;;;;;;5049094;28;20240;-64
2023/06/14 09:09:01;;;;;;;4.28;3.58;;;;;;;;;;5070467;28;20226;-66
2023/06/14 09:11:29;;;;;;;4.25;3.72;;;;;;;;;;5061712;28;20610;-62
2023/06/14 09:13:56;;;;;;;4.95;3.70;;;;;;;;;;5079380;28;20599;-65
2023/06/14 09:16:24;;;;;;;3.90;3.50;;;;;;;;;;5074355;28;20198;-62
2023/06/14 09:18:51;;;;;;;5.00;3.45;;;;;;;;;;5079241;28;20208;-64
2023/06/14 09:21:18;;;;;;;4.88;3.55;;;;;;;;;;5056483;28;20302;-63
2023/06/14 09:23:47;;;;;;;4.07;3.70;;;;;;;;;;5077977;28;20213;-62
2023/06/14 09:26:14;;;;;;;5.57;3.88;;;;;;;;;;5071170;28;20201;-62
2023/06/14 09:28:46;;;;;;;3.97;3.50;;;;;;;;;;5078620;28;20308;-64
2023/06/14 09:31:14;;;;;;;4.72;3.88;;;;;;;;;;5075941;28;20231;-63
2023/06/14 09:33:48;;;;;;;4.57;3.65;;;;;;;;;;5079042;28;20231;-63
2023/06/14 09:36:23;;;;;;;6.97;5.00;;;;;;;;;;5069096;28;20227;-62
2023/06/14 09:38:54;;;;;;;8.82;4.90;;;;;;;;;;5084427;28;20641;-64
2023/06/14 09:41:21;;;;;;;4.30;3.70;;;;;;;;;;5076805;28;20225;-63
2023/06/14 09:43:50;;;;;;;5.90;3.50;;;;;;;;;;5078459;28;20242;-61
2023/06/14 09:46:17;;;;;;;4.18;3.83;;;;;;;;;;5071518;28;20201;-65
2023/06/14 09:48:45;;;;;;;11.57;6.25;;;;;;;;;;5038857;28;20233;-67
2023/06/14 09:51:14;;;;;;;4.43;3.92;;;;;;;;;;5031164;28;21624;-64
2023/06/14 09:53:43;;;;;;;6.13;4.55;;;;;;;;;;5048329;28;20221;-62
2023/06/14 09:56:11;;;;;;;5.72;3.53;;;;;;;;;;5045419;28;20259;-61
2023/06/14 09:58:40;;;;;;;4.75;3.00;;;;;;;;;;5053509;28;20210;-61
2023/06/14 10:01:09;;;;;;;3.80;3.50;;;;;;;;;;5046539;28;20210;-67
2023/06/14 10:03:39;;;;;;;4.85;3.50;;;;;;;;;;5046713;28;20230;-64
2023/06/14 10:06:27;;;;;;;4.63;4.22;;;;;;;;;;5051081;28;20206;-63
2023/06/14 10:08:56;;;;;;;4.45;3.85;;;;;;;;;;5053178;28;20276;-63
2023/06/14 10:11:25;;;;;;;6.28;3.80;;;;;;;;;;5048455;28;22735;-64
2023/06/14 10:13:53;;;;;;;6.13;3.60;;;;;;;;;;5050250;28;20204;-64
2023/06/14 10:16:32;;;;;;;3.67;3.38;;;;;;;;;;5050882;28;20198;-61
2023/06/14 10:18:59;;;;;;;6.43;3.90;;;;;;;;;;5051234;28;20278;-62
2023/06/14 10:21:33;;;;;;;3.95;3.58;;;;;;;;;;5052932;28;20697;-65
2023/06/14 10:24:03;;;;;;;5.47;3.75;;;;;;;;;;5070149;28;20694;-62
2023/06/14 10:26:31;;;;;;;6.60;3.85;;;;;;;;;;5080085;28;20200;-61
2023/06/14 10:28:59;;;;;;;4.68;3.75;;;;;;;;;;5075934;28;20269;-63
2023/06/14 10:31:55;;;;;;;7.93;4.50;;;;;;;;;;5049040;28;20233;-63
2023/06/14 10:34:32;;;;;;;6.35;4.25;;;;;;;;;;5037809;28;20202;-63
2023/06/14 10:37:04;;;;;;;5.90;4.35;;;;;;;;;;5056471;28;20193;-64
2023/06/14 10:39:53;;;;;;;4.15;3.75;;;;;;;;;;5034408;28;20251;-63
2023/06/14 10:42:22;;;;;;;5.57;4.13;;;;;;;;;;5036593;28;20225;-62
2023/06/14 10:44:59;;;;;;;4.30;3.55;;;;;;;;;;5047104;28;20288;-64
2023/06/14 10:47:30;;;;;;;7.13;4.28;;;;;;;;;;5046918;28;20205;-63
2023/06/14 10:50:05;;;;;;;5.07;4.00;;;;;;;;;;5042751;28;20331;-62
2023/06/14 10:52:38;;;;;;;7.85;3.80;;;;;;;;;;5029935;28;20734;-61
2023/06/14 10:55:18;;;;;;;8.00;3.50;;;;;;;;;;5040713;28;20206;-61
2023/06/14 10:57:58;;;;;;;7.85;4.60;;;;;;;;;;5020427;28;20209;-62
2023/06/14 11:00:30;;;;;;;6.85;3.85;;;;;;;;;;5032634;28;20210;-64
2023/06/14 11:03:01;;;;;;;5.60;4.22;;;;;;;;;;5022766;28;20221;-63
2023/06/14 11:05:29;;;;;;;5.88;3.70;;;;;;;;;;5040394;28;20201;-63
2023/06/14 11:08:15;;;;;;;5.90;3.40;;;;;;;;;;5049696;28;20259;-62
2023/06/14 11:10:47;;;;;;;5.50;3.90;;;;;;;;;;5047608;28;20228;-62
2023/06/14 11:13:16;;;;;;;4.05;3.65;;;;;;;;;;5037130;28;20704;-64
2023/06/14 11:15:45;;;;;;;4.10;3.80;;;;;;;;;;5031696;28;20205;-62
2023/06/14 11:18:13;;;;;;;5.30;3.60;;;;;;;;;;5050876;28;20592;-64
2023/06/14 11:20:42;;;;;;;4.25;3.50;;;;;;;;;;5075619;28;20205;-64
2023/06/14 11:23:10;;;;;;;6.28;4.65;;;;;;;;;;5071124;28;20232;-64
2023/06/14 11:25:37;;;;;;;4.00;3.70;;;;;;;;;;5069227;28;20244;-63
2023/06/14 11:28:05;;;;;;;4.95;3.80;;;;;;;;;;5060242;28;20209;-64
2023/06/14 11:30:34;;;;;;;9.10;3.85;;;;;;;;;;5058844;28;20202;-64
2023/06/14 11:33:01;;;;;;;4.60;4.03;;;;;;;;;;5064236;28;20722;-64
2023/06/14 11:35:29;;;;;;;4.63;4.22;;;;;;;;;;5067605;28;20235;-64
2023/06/14 11:37:57;;;;;;;5.85;3.47;;;;;;;;;;5064322;28;20584;-61
2023/06/14 11:40:25;;;;;;;4.03;3.45;;;;;;;;;;5062671;28;20205;-65
2023/06/14 11:43:00;;;;;;;5.45;3.75;;;;;;;;;;5069101;28;20233;-64
2023/06/14 11:45:28;;;;;;;4.45;4.05;;;;;;;;;;5059629;28;20787;-64
2023/06/14 11:47:57;;;;;;;3.40;3.10;;;;;;;;;;5058462;28;20198;-65
2023/06/14 11:50:26;;;;;;;4.20;3.70;;;;;;;;;;5062003;28;20616;-64
2023/06/14 11:53:10;;;;;;;3.85;3.55;;;;;;;;;;5050600;28;20723;-64
2023/06/14 11:55:39;;;;;;;6.55;3.72;;;;;;;;;;5039163;28;20206;-64
2023/06/14 11:58:07;;;;;;;6.25;3.60;;;;;;;;;;5042020;28;20213;-62
2023/06/14 12:00:36;;;;;;;3.65;3.20;;;;;;;;;;5044469;28;20283;-63
2023/06/14 12:03:04;;;;;;;3.83;3.53;;;;;;;;;;5059392;28;20229;-63
2023/06/14 12:05:34;;;;;;;3.90;3.50;;;;;;;;;;5047734;28;20241;-64
2023/06/14 12:08:03;;;;;;;3.90;3.58;;;;;;;;;;5064220;28;20592;-64
2023/06/14 12:10:30;;;;;;;3.90;3.60;;;;;;;;;;5045719;28;20234;-65
2023/06/14 12:12:59;;;;;;;3.80;3.50;;;;;;;;;;5046502;28;20236;-63
2023/06/14 12:15:30;;;;;;;4.30;3.45;;;;;;;;;;5049056;28;20797;-63
2023/06/14 12:17:58;;;;;;;5.57;3.45;;;;;;;;;;5060922;28;20277;-64
2023/06/14 12:20:29;;;;;;;3.50;2.97;;;;;;;;;;5045997;28;20206;-64
2023/06/14 12:22:58;;;;;;;4.50;3.40;;;;;;;;;;5054905;28;20229;-63
2023/06/14 12:25:31;;;;;;;4.10;3.47;;;;;;;;;;5078572;28;20248;-63
2023/06/14 12:28:06;;;;;;;4.68;3.25;;;;;;;;;;5081348;28;20297;-63
2023/06/14 12:30:33;;;;;;;4.78;3.40;;;;;;;;;;5050514;28;20257;-64
2023/06/14 12:33:02;;;;;;;5.22;3.67;;;;;;;;;;5050884;28;20403;-64
2023/06/14 12:35:30;;;;;;;3.55;3.30;;;;;;;;;;5029415;28;20213;-63
2023/06/14 12:37:57;;;;;;;5.18;3.50;;;;;;;;;;5036487;28;20210;-65
2023/06/14 12:40:24;;;;;;;4.03;3.40;;;;;;;;;;5038599;28;20210;-63
2023/06/14 12:42:52;;;;;;;3.75;3.40;;;;;;;;;;5031189;28;20296;-63
2023/06/14 12:45:20;;;;;;;3.30;3.00;;;;;;;;;;5044609;28;20599;-62
2023/06/14 12:47:47;;;;;;;3.92;3.17;;;;;;;;;;5040419;28;20210;-64
2023/06/14 12:50:15;;;;;;;3.92;3.60;;;;;;;;;;5028718;28;20323;-63
2023/06/14 12:52:43;;;;;;;5.35;3.47;;;;;;;;;;5055555;28;20387;-63
2023/06/14 12:55:10;;;;;;;4.25;3.65;;;;;;;;;;5042803;28;20297;-64
2023/06/14 12:57:38;;;;;;;3.80;3.50;;;;;;;;;;5043773;28;20203;-64
2023/06/14 13:00:07;;;;;;;4.05;3.60;;;;;;;;;;5042885;28;20216;-64
2023/06/14 13:02:35;;;;;;;5.65;3.35;;;;;;;;;;5042234;28;20501;-62
2023/06/14 13:05:04;;;;;;;3.78;3.30;;;;;;;;;;5045447;28;20202;-64
2023/06/14 13:07:34;;;;;;;5.13;3.42;;;;;;;;;;5042679;28;20202;-64
2023/06/14 13:10:01;;;;;;;4.05;3.65;;;;;;;;;;5068655;28;20744;-63
2023/06/14 13:12:28;;;;;;;4.25;3.85;;;;;;;;;;5076321;28;20226;-63
2023/06/14 13:14:56;;;;;;;6.07;3.60;;;;;;;;;;5085281;28;20266;-63
2023/06/14 13:17:23;;;;;;;3.60;3.22;;;;;;;;;;5079676;28;20619;-63
2023/06/14 13:19:51;;;;;;;5.75;3.85;;;;;;;;;;5077304;28;20236;-63
2023/06/14 13:22:18;;;;;;;5.50;4.68;;;;;;;;;;5071827;28;20217;-62
2023/06/14 13:24:45;;;;;;;6.93;4.78;;;;;;;;;;5063421;28;20296;-64
2023/06/14 13:27:14;;;;;;;8.02;6.00;;;;;;;;;;5072022;28;20206;-64
2023/06/14 13:29:41;;;;;;;4.57;3.60;;;;;;;;;;5075415;28;20316;-64
2023/06/14 13:32:09;;;;;;;5.95;3.70;;;;;;;;;;5081315;28;20240;-64
2023/06/14 13:34:37;;;;;;;4.00;3.70;;;;;;;;;;5075900;28;20247;-64
2023/06/14 13:37:04;;;;;;;4.40;3.40;;;;;;;;;;5066983;28;20735;-64
2023/06/14 13:39:33;;;;;;;3.65;3.35;;;;;;;;;;5054246;28;20292;-63
2023/06/14 13:42:00;;;;;;;4.85;3.70;;;;;;;;;;5060234;28;20709;-64
2023/06/14 13:44:28;;;;;;;3.92;3.63;;;;;;;;;;5062428;28;20209;-64
2023/06/14 13:46:55;;;;;;;3.75;3.45;;;;;;;;;;5058183;28;20196;-64
2023/06/14 13:49:22;;;;;;;6.78;4.18;;;;;;;;;;5076684;28;20328;-63
2023/06/14 13:51:51;;;;;;;4.68;3.53;;;;;;;;;;5082725;28;20299;-63
2023/06/14 13:54:21;;;;;;;5.28;3.50;;;;;;;;;;5058424;28;20229;-63
2023/06/14 13:56:48;;;;;;;3.50;3.20;;;;;;;;;;5037633;28;20235;-64
2023/06/14 13:59:16;;;;;;;4.57;3.88;;;;;;;;;;5044036;28;20209;-65
2023/06/14 14:01:43;;;;;;;3.95;3.20;;;;;;;;;;5044711;28;20282;-64
2023/06/14 14:04:12;;;;;;;4.88;3.63;;;;;;;;;;5052119;28;20220;-64
2023/06/14 14:06:39;;;;;;;4.95;3.60;;;;;;;;;;5048701;28;20640;-64
2023/06/14 14:09:08;;;;;;;4.50;3.35;;;;;;;;;;5046992;28;20583;-64
2023/06/14 14:11:36;;;;;;;4.22;3.83;;;;;;;;;;5049479;28;20316;-67
2023/06/14 14:14:04;;;;;;;3.83;3.50;;;;;;;;;;5041457;28;20214;-65
2023/06/14 14:16:32;;;;;;;3.75;3.45;;;;;;;;;;5044105;28;20615;-66
2023/06/14 14:19:00;;;;;;;4.18;3.78;;;;;;;;;;5044606;28;20294;-63
2023/06/14 14:21:27;;;;;;;4.32;3.55;;;;;;;;;;5046003;28;20295;-61
2023/06/14 14:23:56;;;;;;;4.10;3.70;;;;;;;;;;5065415;28;20217;-63
2023/06/14 14:26:24;;;;;;;4.22;3.83;;;;;;;;;;5077541;28;20221;-62
2023/06/14 14:28:52;;;;;;;4.10;3.78;;;;;;;;;;5079808;28;20194;-63
2023/06/14 14:31:19;;;;;;;4.80;3.67;;;;;;;;;;5045771;28;20599;-63
2023/06/14 14:33:47;;;;;;;3.78;3.30;;;;;;;;;;5044818;28;20772;-62
2023/06/14 14:36:14;;;;;;;4.75;3.55;;;;;;;;;;5044905;28;20201;-64
2023/06/14 14:38:42;;;;;;;4.38;3.50;;;;;;;;;;5032876;28;20228;-63
2023/06/14 14:41:09;;;;;;;4.28;3.88;;;;;;;;;;5031022;28;20210;-63
2023/06/14 14:43:37;;;;;;;5.38;3.60;;;;;;;;;;5051994;28;20205;-63
2023/06/14 14:46:04;;;;;;;4.28;3.75;;;;;;;;;;5037541;28;20264;-63
2023/06/14 14:48:31;;;;;;;3.85;3.55;;;;;;;;;;5031859;28;20724;-63